SKSP/ADZ METAR and TAF weather

Enter ICAO airport designator
Station Type Date Time Source
SKSP METAR 2022/01/25 04:00 UTC NOAA

SKSP 250400Z 08008KT 050V120 9999 FEW017 27/22 Q1013 RMK A2992


Station Type Date Time Source
SKSP Decoded METAR 2022/01/25 04:00 UTC NOAA

San Andres Isla / Sesquicentenario, Colombia (SKSP) 12-35N 081-43W 6M
Jan 24, 2022 - 11:00 PM EST / 2022.01.25 0400 UTC
Wind: from the E (080 degrees) at 9 MPH (8 KT) (direction variable):0
Visibility: greater than 7 mile(s):0
Sky conditions: mostly clear
Temperature: 80 F (27 C)
Dew Point: 71 F (22 C)
Relative Humidity: 74%
Pressure (altimeter): 29.91 in. Hg (1013 hPa)
ob: SKSP 250400Z 08008KT 050V120 9999 FEW017 27/22 Q1013 RMK A2992
cycle: 4

Station Type Date Time Source
SKSP TAF 2022/01/25 00:30 UTC NOAA

TAF SKSP 242230Z 2500/2524 06012KT 9999 FEW018 TX31/2518Z TN26/2511Z

Example: see airport list